Time;durP1;ratioP1;P1;durP2;ratioP2;P2;SDS_P1;SDS_P2;PMS_P1;PMS_P2;Temp;Humidity;BMP_temperature;BMP_pressure;BME280_temperature;BME280_humidity;BME280_pressure;Samples;Min_cycle;Max_cycle;Signal;HPM_P1;HPM_P2
2023/04/09 00:02:10;;;;;;;18.50;13.63;;;;;;;11.10;68.65;101551.00;4983359;28;20062;-82
2023/04/09 00:04:37;;;;;;;22.55;13.18;;;;;;;10.66;68.22;101484.34;4978733;28;20706;-82
2023/04/09 00:07:07;;;;;;;18.25;13.45;;;;;;;10.93;69.12;101559.41;4977689;28;20164;-82
2023/04/09 00:09:34;;;;;;;17.58;13.73;;;;;;;10.76;68.58;101540.25;5004513;28;20054;-82
2023/04/09 00:12:10;;;;;;;22.92;14.32;;;;;;;10.84;69.41;101558.28;5014235;28;20051;-82
2023/04/09 00:14:37;;;;;;;18.08;14.57;;;;;;;10.78;69.70;101551.63;4997274;28;20327;-82
2023/04/09 00:17:04;;;;;;;16.35;13.75;;;;;;;10.78;70.27;101551.63;5016475;28;20053;-82
2023/04/09 00:19:35;;;;;;;15.13;13.20;;;;;;;10.82;69.85;101553.06;5004848;28;20060;-82
2023/04/09 00:22:03;;;;;;;17.48;11.50;;;;;;;10.70;68.81;101511.50;5001236;28;20399;-83
2023/04/09 00:24:32;;;;;;;16.98;11.30;;;;;;;11.05;67.85;101542.53;5003211;28;20052;-82
2023/04/09 00:26:59;;;;;;;12.07;10.68;;;;;;;10.52;66.91;101459.78;4993287;28;20041;-84
2023/04/09 00:29:26;;;;;;;15.18;13.13;;;;;;;11.06;68.56;101566.31;4998333;28;20417;-83
2023/04/09 00:31:53;;;;;;;15.10;12.25;;;;;;;10.85;68.52;101549.34;4999105;28;20055;-82
2023/04/09 00:34:19;;;;;;;12.63;10.88;;;;;;;10.74;68.24;101550.16;5013435;28;20054;-82
2023/04/09 00:36:46;;;;;;;12.73;10.70;;;;;;;10.32;68.39;101482.50;4995290;28;20053;-82
2023/04/09 00:39:13;;;;;;;15.82;10.77;;;;;;;10.66;68.81;101560.50;4998387;28;20418;-81
2023/04/09 00:41:43;;;;;;;13.43;9.70;;;;;;;10.66;68.65;101566.66;5000154;28;20238;-81
2023/04/09 00:44:24;;;;;;;12.65;10.38;;;;;;;10.71;68.39;101574.28;4999999;28;20053;-83
2023/04/09 00:46:51;;;;;;;10.32;9.20;;;;;;;10.47;69.14;101537.13;4999360;28;20403;-83
2023/04/09 00:49:18;;;;;;;12.88;9.70;;;;;;;10.68;68.21;101561.25;4999314;28;20430;-83
2023/04/09 00:51:48;;;;;;;10.85;9.73;;;;;;;11.02;67.13;101579.94;5003524;28;20048;-83
2023/04/09 00:54:15;;;;;;;13.80;9.60;;;;;;;11.13;66.15;101582.66;4994089;28;20423;-84
2023/04/09 00:56:52;;;;;;;13.07;10.95;;;;;;;11.02;65.88;101559.56;4991406;28;20068;-82
2023/04/09 00:59:19;;;;;;;11.15;9.70;;;;;;;10.95;66.49;101576.06;4996315;28;20049;-83
2023/04/09 01:01:49;;;;;;;9.73;8.82;;;;;;;10.84;67.44;101576.88;4986269;28;20570;-82
2023/04/09 01:04:16;;;;;;;11.27;10.15;;;;;;;10.72;67.61;101581.28;4979709;28;20364;-83
2023/04/09 01:06:50;;;;;;;12.82;9.65;;;;;;;10.24;67.10;101510.44;4978135;28;20042;-83
2023/04/09 01:09:28;;;;;;;15.68;9.38;;;;;;;10.42;66.70;101545.41;4997584;28;20054;-82
2023/04/09 01:12:01;;;;;;;12.88;10.75;;;;;;;9.84;67.54;101454.09;4980849;28;20161;-83
2023/04/09 01:14:46;;;;;;;15.30;10.43;;;;;;;10.48;68.27;101590.09;4995419;28;20256;-83
2023/04/09 01:17:34;;;;;;;16.80;9.98;;;;;;;10.41;68.70;101591.50;5020844;28;20061;-83
2023/04/09 01:20:15;;;;;;;12.45;9.77;;;;;;;10.41;69.34;101590.63;5021704;28;20076;-82
2023/04/09 01:22:50;;;;;;;14.82;10.80;;;;;;;10.52;68.37;101587.22;5002370;28;20111;-82
2023/04/09 01:25:42;;;;;;;12.05;10.15;;;;;;;10.71;67.09;101587.56;5016407;28;20045;-81
2023/04/09 01:28:18;;;;;;;13.93;9.90;;;;;;;10.72;66.82;101583.94;5022186;28;20170;-84
2023/04/09 01:31:21;;;;;;;14.68;10.00;;;;;;;10.45;67.94;101565.56;5008315;28;20080;-82
2023/04/09 01:34:01;;;;;;;12.70;9.82;;;;;;;10.45;68.06;101584.16;4979507;28;20235;-83
2023/04/09 01:36:38;;;;;;;12.77;10.23;;;;;;;10.48;67.58;101568.00;4981127;28;20289;-82
2023/04/09 01:39:06;;;;;;;17.20;11.73;;;;;;;10.63;67.10;101585.47;4992914;28;20061;-84
2023/04/09 01:41:34;;;;;;;14.45;10.77;;;;;;;10.55;67.95;101579.03;5000120;28;20062;-81
2023/04/09 01:44:06;;;;;;;16.05;10.93;;;;;;;10.25;67.52;101543.13;5004896;28;20491;-83
2023/04/09 01:46:34;;;;;;;12.30;10.73;;;;;;;10.51;68.03;101581.06;5000622;28;20077;-83
2023/04/09 01:49:01;;;;;;;14.50;11.43;;;;;;;10.24;68.31;101541.41;5000225;28;20156;-83
2023/04/09 01:51:30;;;;;;;15.85;11.32;;;;;;;10.38;68.39;101586.41;4997229;28;20049;-84
2023/04/09 01:53:59;;;;;;;15.13;11.43;;;;;;;10.17;68.41;101553.41;4990264;28;20058;-82
2023/04/09 01:56:26;;;;;;;13.95;10.93;;;;;;;9.71;68.86;101474.47;5006956;28;20045;-82
2023/04/09 01:58:55;;;;;;;15.90;12.02;;;;;;;9.75;68.72;101492.72;4996509;28;20542;-82
2023/04/09 02:01:34;;;;;;;12.63;11.25;;;;;;;9.92;68.75;101518.03;4985438;28;20216;-83
2023/04/09 02:04:03;;;;;;;13.45;11.13;;;;;;;10.29;69.39;101587.06;4988837;28;20053;-83
2023/04/09 02:06:49;;;;;;;14.98;12.50;;;;;;;10.13;69.79;101557.28;4972283;28;20442;-82
2023/04/09 02:09:20;;;;;;;11.55;10.45;;;;;;;10.24;69.97;101573.25;4978975;28;20064;-81
2023/04/09 02:11:54;;;;;;;14.27;12.43;;;;;;;10.26;69.34;101572.19;4987313;28;20054;-83
2023/04/09 02:14:31;;;;;;;14.80;12.18;;;;;;;10.24;69.45;101568.81;4987844;28;20049;-83
2023/04/09 02:16:59;;;;;;;15.43;12.73;;;;;;;10.37;69.69;101584.72;4981265;28;20049;-84
2023/04/09 02:19:48;;;;;;;15.80;13.05;;;;;;;10.18;70.16;101560.44;4988765;28;20049;-83
2023/04/09 02:22:19;;;;;;;13.23;11.82;;;;;;;10.04;70.31;101546.34;5001840;28;20132;-82
2023/04/09 02:24:48;;;;;;;18.30;13.30;;;;;;;10.34;70.45;101595.56;4986796;28;20045;-82
2023/04/09 02:27:20;;;;;;;18.02;13.55;;;;;;;10.50;69.17;101567.91;4996225;28;20041;-83
2023/04/09 02:29:49;;;;;;;16.58;13.38;;;;;;;10.30;69.63;101534.84;4997155;28;20056;-83
2023/04/09 02:32:19;;;;;;;19.33;13.32;;;;;;;10.58;69.42;101573.47;4975108;28;20064;-81
2023/04/09 02:34:46;;;;;;;20.17;13.35;;;;;;;10.53;70.09;101571.16;4979430;28;20499;-80
2023/04/09 02:37:13;;;;;;;15.15;13.55;;;;;;;10.49;70.01;101583.00;4973978;28;20350;-83
2023/04/09 02:39:39;;;;;;;15.73;12.82;;;;;;;10.30;70.05;101548.97;4981461;28;20046;-81
2023/04/09 02:42:06;;;;;;;13.63;11.73;;;;;;;10.51;70.44;101589.03;4981373;28;20521;-80
2023/04/09 02:44:33;;;;;;;18.83;12.07;;;;;;;10.57;70.11;101595.69;4993437;28;20476;-84
2023/04/09 02:47:02;;;;;;;14.38;11.77;;;;;;;9.95;69.42;101470.09;4979646;28;20449;-84
2023/04/09 02:49:28;;;;;;;15.20;11.98;;;;;;;10.68;68.65;101580.66;4982712;28;20056;-81
2023/04/09 02:51:55;;;;;;;12.65;10.90;;;;;;;10.55;68.97;101561.28;4980875;28;20042;-83
2023/04/09 02:54:24;;;;;;;15.10;11.38;;;;;;;10.58;69.47;101578.78;4983012;28;20290;-82
2023/04/09 02:56:55;;;;;;;14.45;11.38;;;;;;;10.46;69.08;101562.81;4981018;28;20049;-83
2023/04/09 02:59:21;;;;;;;15.25;12.57;;;;;;;10.38;69.33;101551.91;4978190;28;20053;-83
2023/04/09 03:01:50;;;;;;;15.38;12.15;;;;;;;10.40;69.98;101563.25;4993458;28;20404;-82
2023/04/09 03:04:17;;;;;;;15.25;12.05;;;;;;;10.50;69.34;101573.22;4994958;28;20418;-84
2023/04/09 03:06:47;;;;;;;17.98;14.00;;;;;;;10.31;70.39;101547.16;5001379;28;20075;-83
2023/04/09 03:09:24;;;;;;;14.13;12.20;;;;;;;10.54;69.56;101570.22;4980961;28;20049;-83
2023/04/09 03:11:51;;;;;;;16.10;12.77;;;;;;;10.67;69.07;101572.81;4984264;28;20046;-83
2023/04/09 03:14:18;;;;;;;16.80;12.57;;;;;;;10.55;69.24;101581.69;4991021;28;20479;-83
2023/04/09 03:16:44;;;;;;;16.98;11.90;;;;;;;10.57;69.10;101563.84;4994077;28;20344;-82
2023/04/09 03:19:14;;;;;;;14.82;12.15;;;;;;;10.53;69.60;101594.22;4997782;28;20045;-82
2023/04/09 03:21:45;;;;;;;15.82;13.13;;;;;;;10.30;69.16;101572.00;5001439;28;20454;-82
2023/04/09 03:24:19;;;;;;;15.23;13.18;;;;;;;10.42;69.92;101593.19;4990875;28;20065;-83
2023/04/09 03:26:51;;;;;;;13.27;11.82;;;;;;;10.36;69.64;101600.75;5012179;28;20492;-83
2023/04/09 03:29:26;;;;;;;14.55;11.50;;;;;;;10.12;69.65;101569.69;4985354;28;20455;-83
2023/04/09 03:31:52;;;;;;;18.45;12.98;;;;;;;10.12;69.45;101563.50;4988226;28;20050;-83
2023/04/09 03:34:19;;;;;;;16.80;13.20;;;;;;;10.31;69.55;101601.06;4976733;28;20056;-82
2023/04/09 03:36:49;;;;;;;15.30;12.15;;;;;;;10.21;69.21;101592.88;4973831;28;20061;-84
2023/04/09 03:39:17;;;;;;;14.65;10.88;;;;;;;10.01;70.13;101569.59;4983054;28;20075;-82
2023/04/09 03:41:50;;;;;;;14.45;11.55;;;;;;;10.02;70.30;101573.94;4981380;28;20298;-83
2023/04/09 03:44:17;;;;;;;14.48;11.98;;;;;;;9.83;70.06;101542.59;4984106;28;20052;-82
2023/04/09 03:46:47;;;;;;;16.17;12.23;;;;;;;10.13;69.97;101592.59;4981019;28;20463;-83
2023/04/09 03:49:17;;;;;;;13.85;11.45;;;;;;;10.13;70.02;101597.06;4985604;28;20053;-80
2023/04/09 03:51:44;;;;;;;14.73;11.38;;;;;;;9.95;69.30;101554.09;4976106;28;20053;-82
2023/04/09 03:54:11;;;;;;;16.80;11.98;;;;;;;9.78;68.59;101512.88;4974994;28;20285;-82
2023/04/09 03:56:41;;;;;;;13.68;12.25;;;;;;;10.35;69.45;101596.41;4980423;28;20327;-81
2023/04/09 03:59:08;;;;;;;13.77;11.23;;;;;;;10.30;69.48;101596.72;4970966;28;20065;-83
2023/04/09 04:01:35;;;;;;;13.23;11.88;;;;;;;10.28;70.39;101603.94;4989964;28;20068;-83
2023/04/09 04:04:01;;;;;;;16.27;11.30;;;;;;;10.03;69.80;101565.88;5002728;28;20060;-83
2023/04/09 04:06:28;;;;;;;12.65;11.18;;;;;;;9.90;69.96;101535.03;5015723;28;20507;-82
2023/04/09 04:09:00;;;;;;;13.32;11.93;;;;;;;10.27;69.92;101604.91;4991721;28;20210;-84
2023/04/09 04:11:37;;;;;;;15.07;11.48;;;;;;;10.35;70.18;101605.22;4983905;28;20042;-82
2023/04/09 04:14:07;;;;;;;12.00;10.77;;;;;;;10.40;69.85;101602.22;4994595;28;20048;-82
2023/04/09 04:16:39;;;;;;;12.60;10.77;;;;;;;10.35;69.69;101601.72;5000676;28;20207;-79
2023/04/09 04:19:06;;;;;;;14.82;11.52;;;;;;;10.14;68.98;101557.13;5005563;28;20056;-81
2023/04/09 04:21:37;;;;;;;15.15;11.98;;;;;;;10.36;69.35;101600.75;4997684;28;20057;-83
2023/04/09 04:24:07;;;;;;;19.30;11.88;;;;;;;10.26;69.09;101603.19;4989342;28;20510;-82
2023/04/09 04:26:34;;;;;;;14.43;11.43;;;;;;;10.22;69.86;101601.72;5017876;28;20494;-82
2023/04/09 04:29:05;;;;;;;14.02;11.80;;;;;;;10.20;70.26;101588.56;5013673;28;20050;-83
2023/04/09 04:31:34;;;;;;;15.38;10.70;;;;;;;10.08;69.09;101562.06;4986371;28;20073;-84
2023/04/09 04:34:03;;;;;;;14.30;11.30;;;;;;;10.31;70.17;101611.69;4984841;28;20100;-82
2023/04/09 04:36:31;;;;;;;18.67;11.10;;;;;;;10.31;71.20;101608.19;4994986;28;20049;-84
2023/04/09 04:38:57;;;;;;;14.13;11.43;;;;;;;10.11;70.34;101581.25;4992682;28;20056;-82
2023/04/09 04:41:35;;;;;;;16.42;10.90;;;;;;;10.12;71.16;101590.03;4987062;28;20769;-83
2023/04/09 04:44:05;;;;;;;13.80;11.73;;;;;;;10.32;70.08;101607.25;5000467;28;20495;-83
2023/04/09 04:46:32;;;;;;;14.18;11.13;;;;;;;10.15;70.27;101579.25;4998340;28;20285;-83
2023/04/09 04:48:58;;;;;;;16.58;12.10;;;;;;;10.31;70.18;101608.19;4997246;28;20061;-82
2023/04/09 04:51:26;;;;;;;18.33;11.82;;;;;;;10.26;70.61;101611.97;5005436;28;20050;-80
2023/04/09 04:53:53;;;;;;;16.77;11.48;;;;;;;10.22;70.04;101607.03;4999514;28;20374;-84
2023/04/09 04:56:25;;;;;;;15.60;11.98;;;;;;;10.21;70.40;101613.28;4998881;28;20085;-82
2023/04/09 04:58:51;;;;;;;18.17;11.65;;;;;;;9.83;70.45;101547.91;4999708;28;20064;-83
2023/04/09 05:01:22;;;;;;;14.63;12.55;;;;;;;10.17;70.57;101627.72;4988373;28;20155;-84
2023/04/09 05:03:52;;;;;;;15.35;11.70;;;;;;;10.16;70.85;101628.69;4984929;28;20695;-83
2023/04/09 05:06:20;;;;;;;14.63;11.52;;;;;;;10.16;71.00;101632.19;4985616;28;20061;-83
2023/04/09 05:08:46;;;;;;;14.85;11.45;;;;;;;10.17;70.66;101631.25;4985058;28;20046;-83
2023/04/09 05:11:16;;;;;;;16.25;12.32;;;;;;;10.12;70.58;101628.06;4993860;28;20119;-83
2023/04/09 05:13:43;;;;;;;13.80;11.98;;;;;;;10.10;70.23;101624.66;5003838;28;20297;-82
2023/04/09 05:16:17;;;;;;;14.52;11.68;;;;;;;10.30;69.59;101635.72;4989854;28;20053;-82
2023/04/09 05:18:44;;;;;;;17.08;12.05;;;;;;;10.32;69.80;101639.94;4984125;28;20088;-80
2023/04/09 05:21:22;;;;;;;15.15;11.68;;;;;;;10.34;69.20;101645.13;4977336;28;20314;-82
2023/04/09 05:23:53;;;;;;;12.48;11.18;;;;;;;10.31;68.10;101627.63;4979736;28;20526;-83
2023/04/09 05:26:20;;;;;;;19.17;12.60;;;;;;;9.61;68.33;101522.88;4982924;28;20397;-82
2023/04/09 05:28:47;;;;;;;16.65;11.05;;;;;;;9.54;68.04;101511.00;5016606;28;20045;-82
2023/04/09 05:31:14;;;;;;;13.43;10.63;;;;;;;9.88;67.15;101555.50;5002401;28;20049;-84
2023/04/09 05:33:51;;;;;;;18.98;11.52;;;;;;;10.03;67.10;101565.88;5007082;28;20112;-82
2023/04/09 05:36:21;;;;;;;15.35;11.38;;;;;;;10.50;67.00;101643.06;4983372;28;20064;-84
2023/04/09 05:38:50;;;;;;;13.80;11.20;;;;;;;10.56;67.41;101658.56;4992816;28;20240;-84
2023/04/09 05:41:22;;;;;;;13.25;11.05;;;;;;;10.47;66.34;101644.16;4992760;28;20053;-83
2023/04/09 05:43:49;;;;;;;13.00;11.18;;;;;;;10.60;67.13;101654.72;5001879;28;20045;-83
2023/04/09 05:46:16;;;;;;;15.07;11.25;;;;;;;10.01;66.45;101551.88;4987491;28;20056;-81
2023/04/09 05:48:43;;;;;;;12.45;11.15;;;;;;;10.63;67.94;101651.00;4998650;28;20710;-81
2023/04/09 05:51:10;;;;;;;18.98;12.00;;;;;;;10.65;66.41;101657.88;4983693;28;20054;-83
2023/04/09 05:53:40;;;;;;;11.98;10.77;;;;;;;10.67;67.18;101644.50;4981241;28;20486;-83
2023/04/09 05:56:14;;;;;;;16.73;12.02;;;;;;;10.82;66.42;101663.78;4987144;28;20504;-82
2023/04/09 05:58:41;;;;;;;14.65;11.40;;;;;;;10.84;65.87;101665.38;4981083;28;20049;-82
2023/04/09 06:01:09;;;;;;;13.10;11.77;;;;;;;10.73;66.15;101644.09;4985460;28;20050;-82
2023/04/09 06:03:35;;;;;;;14.02;11.60;;;;;;;10.89;65.66;101659.72;4989266;28;20064;-82
2023/04/09 06:06:03;;;;;;;12.90;10.68;;;;;;;10.65;66.37;101625.19;5006121;28;20136;-83
2023/04/09 06:08:36;;;;;;;14.30;12.27;;;;;;;10.80;66.66;101649.78;5006453;28;20084;-83
2023/04/09 06:11:09;;;;;;;14.43;12.20;;;;;;;10.91;65.99;101674.59;4997100;28;20057;-82
2023/04/09 06:13:39;;;;;;;15.48;11.70;;;;;;;10.48;66.37;101587.44;5000227;28;20262;-83
2023/04/09 06:16:09;;;;;;;13.23;11.85;;;;;;;10.55;65.56;101592.31;4986805;28;20050;-83
2023/04/09 06:18:36;;;;;;;14.13;12.35;;;;;;;10.79;66.11;101622.38;5002441;28;20517;-83
2023/04/09 06:21:05;;;;;;;17.55;12.45;;;;;;;11.18;64.99;101670.00;4988677;28;20334;-83
2023/04/09 06:23:34;;;;;;;15.82;11.80;;;;;;;11.07;64.78;101647.75;5009224;28;20460;-82
2023/04/09 06:26:01;;;;;;;14.60;12.02;;;;;;;11.08;64.55;101645.94;5009870;28;20310;-82
2023/04/09 06:28:28;;;;;;;14.70;12.32;;;;;;;10.51;64.47;101543.03;5011567;28;20308;-84
2023/04/09 06:30:58;;;;;;;15.88;12.70;;;;;;;10.78;64.72;101572.88;5002288;28;20514;-82
2023/04/09 06:33:25;;;;;;;18.33;12.23;;;;;;;11.40;64.90;101677.22;4997488;28;20053;-82
2023/04/09 06:35:52;;;;;;;14.05;12.60;;;;;;;11.34;65.33;101659.94;5025232;28;20586;-83
2023/04/09 06:38:22;;;;;;;15.02;11.90;;;;;;;11.56;64.34;101685.75;5011312;28;20269;-81
2023/04/09 06:40:49;;;;;;;17.88;12.07;;;;;;;11.61;64.35;101694.22;5015723;28;20472;-83
2023/04/09 06:43:19;;;;;;;18.77;12.05;;;;;;;11.32;64.74;101646.75;5011047;28;20132;-84
2023/04/09 06:45:54;;;;;;;15.90;12.50;;;;;;;11.63;64.53;101694.13;4994030;28;20081;-83
2023/04/09 06:48:24;;;;;;;14.70;12.30;;;;;;;11.52;64.45;101678.97;5006482;28;20502;-82
2023/04/09 06:51:00;;;;;;;15.63;11.52;;;;;;;11.71;64.10;101697.03;4991454;28;20106;-83
2023/04/09 06:53:27;;;;;;;20.58;13.40;;;;;;;11.59;64.58;101679.34;5007699;28;20484;-82
2023/04/09 06:55:55;;;;;;;13.90;11.98;;;;;;;11.60;65.14;101681.88;4989061;28;20053;-82
2023/04/09 06:58:22;;;;;;;14.15;11.65;;;;;;;11.50;65.24;101656.94;4993977;28;20512;-83
2023/04/09 07:00:52;;;;;;;12.52;11.25;;;;;;;11.88;65.22;101711.75;5016801;28;20050;-81
2023/04/09 07:03:26;;;;;;;17.35;13.32;;;;;;;11.88;64.67;101711.75;4989287;28;20400;-80
2023/04/09 07:06:06;;;;;;;16.30;12.68;;;;;;;11.97;64.06;101693.25;5005779;28;20057;-83
2023/04/09 07:08:33;;;;;;;17.05;13.73;;;;;;;12.03;64.32;101709.69;5007824;28;20059;-83
2023/04/09 07:11:00;;;;;;;15.30;12.80;;;;;;;11.72;64.68;101659.69;5007978;28;20403;-81
2023/04/09 07:13:28;;;;;;;17.88;14.23;;;;;;;11.95;64.28;101702.31;5010180;28;20041;-82
2023/04/09 07:15:57;;;;;;;19.67;14.20;;;;;;;11.98;64.38;101718.03;5007636;28;20321;-83
2023/04/09 07:18:30;;;;;;;17.17;13.77;;;;;;;11.87;65.04;101707.34;5000246;28;20059;-82
2023/04/09 07:20:57;;;;;;;17.77;13.48;;;;;;;11.80;64.59;101693.66;5003491;28;20050;-84
2023/04/09 07:23:24;;;;;;;19.08;14.57;;;;;;;11.96;64.80;101736.78;4988392;28;20685;-83
2023/04/09 07:25:51;;;;;;;17.38;14.65;;;;;;;11.84;64.51;101713.72;4983950;28;20141;-82
2023/04/09 07:28:18;;;;;;;18.75;14.45;;;;;;;11.70;64.47;101697.97;4986756;28;20282;-83
2023/04/09 07:30:45;;;;;;;19.50;14.02;;;;;;;11.89;65.15;101729.38;5002411;28;20049;-84
2023/04/09 07:33:18;;;;;;;17.95;14.25;;;;;;;12.01;64.63;101744.41;5020676;28;20046;-84
2023/04/09 07:35:45;;;;;;;16.15;13.45;;;;;;;10.69;64.82;101523.09;4982284;28;20265;-81
2023/04/09 07:38:15;;;;;;;18.52;14.43;;;;;;;11.32;64.36;101619.31;4990470;28;20533;-83
2023/04/09 07:40:55;;;;;;;17.17;13.38;;;;;;;11.37;64.62;101632.28;5004027;28;20049;-83
2023/04/09 07:43:29;;;;;;;13.48;12.07;;;;;;;11.34;65.33;101625.38;5000338;28;20143;-84
2023/04/09 07:45:56;;;;;;;20.88;14.30;;;;;;;11.37;64.95;101633.09;4995254;28;20541;-83
2023/04/09 07:48:24;;;;;;;17.85;13.52;;;;;;;12.04;64.22;101746.84;5021722;28;20592;-83
2023/04/09 07:50:51;;;;;;;14.77;11.80;;;;;;;11.38;64.43;101613.53;5007390;28;20415;-82
2023/04/09 07:53:18;;;;;;;17.60;12.60;;;;;;;12.17;64.98;101755.56;5021685;28;20370;-82
2023/04/09 07:55:45;;;;;;;14.15;11.68;;;;;;;11.87;64.52;101675.44;5001431;28;20140;-82
2023/04/09 07:58:12;;;;;;;13.63;11.70;;;;;;;12.38;64.40;101757.56;5003433;28;20056;-81
2023/04/09 08:00:38;;;;;;;13.95;11.07;;;;;;;12.30;64.07;101731.50;5001913;28;20072;-82
2023/04/09 08:03:05;;;;;;;12.10;10.27;;;;;;;12.36;64.07;101725.72;5003171;28;20806;-81
2023/04/09 08:05:43;;;;;;;12.13;10.02;;;;;;;11.90;63.50;101637.97;5003907;28;20045;-83
2023/04/09 08:08:16;;;;;;;11.75;10.52;;;;;;;12.50;64.13;101735.28;5000756;28;20078;-83
2023/04/09 08:10:53;;;;;;;18.45;10.80;;;;;;;12.66;64.44;101737.56;5001497;28;20341;-85
2023/04/09 08:13:24;;;;;;;14.10;10.60;;;;;;;12.78;63.93;101755.22;5008707;28;20053;-82
2023/04/09 08:15:51;;;;;;;12.15;10.07;;;;;;;12.45;63.94;101689.53;5004762;28;20259;-84
2023/04/09 08:18:18;;;;;;;11.75;10.55;;;;;;;12.95;63.36;101756.53;4993895;28;20096;-84
2023/04/09 08:20:45;;;;;;;11.90;10.75;;;;;;;12.92;63.16;101742.63;5010480;28;20049;-83
2023/04/09 08:23:24;;;;;;;12.82;11.18;;;;;;;13.10;63.36;101774.94;5021986;28;20257;-85
2023/04/09 08:25:52;;;;;;;13.00;10.65;;;;;;;12.73;63.71;101732.59;5013106;28;20050;-82
2023/04/09 08:28:28;;;;;;;12.82;11.20;;;;;;;12.66;64.38;101723.41;5020222;28;20730;-83
2023/04/09 08:30:56;;;;;;;16.08;11.70;;;;;;;12.67;64.00;101714.41;5000068;28;20141;-83
2023/04/09 08:33:32;;;;;;;12.65;11.20;;;;;;;12.97;64.43;101757.25;5008194;28;20048;-83
2023/04/09 08:36:10;;;;;;;14.82;11.80;;;;;;;13.02;63.94;101733.75;5005448;28;20135;-82
2023/04/09 08:38:40;;;;;;;12.55;10.98;;;;;;;13.16;64.35;101761.13;4976282;28;20127;-80
2023/04/09 08:41:16;;;;;;;14.20;11.23;;;;;;;13.18;64.64;101770.69;4970226;28;20042;-80
2023/04/09 08:43:51;;;;;;;15.40;12.02;;;;;;;13.25;64.62;101763.88;4977402;28;20120;-83
2023/04/09 08:46:25;;;;;;;16.67;13.35;;;;;;;13.09;64.69;101746.59;4980353;28;20141;-82
2023/04/09 08:48:52;;;;;;;19.00;12.18;;;;;;;13.07;65.27;101737.88;4980700;28;20144;-81
2023/04/09 08:51:22;;;;;;;16.73;11.48;;;;;;;13.43;64.36;101774.03;4984371;28;20484;-81
2023/04/09 08:53:57;;;;;;;12.68;11.38;;;;;;;13.53;64.16;101764.28;4983425;28;20735;-83
2023/04/09 08:56:27;;;;;;;17.30;12.07;;;;;;;13.52;63.65;101764.41;4979961;28;20400;-81
2023/04/09 08:58:55;;;;;;;12.55;11.27;;;;;;;13.56;63.97;101782.69;4987819;28;20053;-83
2023/04/09 09:01:25;;;;;;;13.10;11.57;;;;;;;13.66;63.79;101777.44;5001251;28;20483;-83
2023/04/09 09:03:55;;;;;;;14.10;11.13;;;;;;;13.38;64.21;101758.41;5005461;28;20073;-82
2023/04/09 09:06:32;;;;;;;15.95;10.57;;;;;;;13.33;64.40;101754.44;5007867;28;20041;-82
2023/04/09 09:09:06;;;;;;;12.32;10.02;;;;;;;13.21;64.51;101724.25;4999967;28;20495;-83
2023/04/09 09:11:50;;;;;;;13.32;11.00;;;;;;;13.65;63.90;101781.09;4977451;28;20058;-84
2023/04/09 09:14:20;;;;;;;12.07;10.25;;;;;;;13.67;63.75;101781.84;4993752;28;20561;-81
2023/04/09 09:16:56;;;;;;;13.75;10.93;;;;;;;13.71;64.10;101785.91;5002691;28;20057;-83
2023/04/09 09:19:29;;;;;;;13.45;10.23;;;;;;;13.60;63.52;101773.47;5000791;28;20049;-82
2023/04/09 09:22:06;;;;;;;14.32;9.40;;;;;;;13.51;63.83;101760.06;5001152;28;20045;-82
2023/04/09 09:24:46;;;;;;;13.38;9.95;;;;;;;13.72;63.73;101782.28;4993670;28;20496;-81
2023/04/09 09:27:36;;;;;;;11.38;9.38;;;;;;;13.76;63.83;101794.41;4994748;28;20393;-80
2023/04/09 09:30:05;;;;;;;13.68;9.80;;;;;;;13.78;63.54;101752.41;5003931;28;20049;-82
2023/04/09 09:32:33;;;;;;;10.57;9.18;;;;;;;13.87;63.05;101772.16;4976289;28;20050;-83
2023/04/09 09:35:06;;;;;;;10.52;8.70;;;;;;;13.79;62.62;101743.44;4988299;28;20054;-82
2023/04/09 09:37:33;;;;;;;13.98;10.52;;;;;;;14.06;62.50;101774.09;5003618;28;20045;-82
2023/04/09 09:40:21;;;;;;;11.35;10.25;;;;;;;13.52;61.21;101653.22;4983757;28;20258;-82
2023/04/09 09:42:56;;;;;;;11.95;9.45;;;;;;;14.28;61.31;101752.59;4983714;28;20455;-83
2023/04/09 09:45:30;;;;;;;13.05;8.90;;;;;;;14.40;60.89;101749.84;4983248;28;20056;-83
2023/04/09 09:48:04;;;;;;;9.18;7.47;;;;;;;14.56;60.17;101766.25;5005651;28;20234;-82
2023/04/09 09:50:34;;;;;;;13.52;8.32;;;;;;;14.61;60.19;101756.03;4986705;28;20514;-81
2023/04/09 09:53:07;;;;;;;11.55;7.70;;;;;;;14.82;59.57;101765.78;5013172;28;20561;-83
2023/04/09 09:55:42;;;;;;;10.40;8.07;;;;;;;14.75;59.52;101738.75;5007389;28;20228;-83
2023/04/09 09:58:34;;;;;;;8.88;7.60;;;;;;;15.04;56.23;101744.16;4998848;28;20477;-83
2023/04/09 10:01:11;;;;;;;7.85;6.00;;;;;;;15.05;55.38;101736.97;4990146;28;20069;-83
2023/04/09 10:03:43;;;;;;;7.38;6.60;;;;;;;15.28;55.50;101756.31;4980613;28;20053;-84
2023/04/09 10:06:13;;;;;;;6.22;5.63;;;;;;;15.00;54.07;101691.09;5003435;28;20057;-84
2023/04/09 10:08:41;;;;;;;8.18;7.10;;;;;;;15.39;54.04;101764.22;4994023;28;20056;-81
2023/04/09 10:11:09;;;;;;;8.07;7.20;;;;;;;14.85;53.94;101663.91;4978433;28;20089;-85
2023/04/09 10:13:57;;;;;;;13.45;5.63;;;;;;;14.66;52.57;101621.97;4993104;28;20423;-84
2023/04/09 10:16:26;;;;;;;10.25;6.95;;;;;;;14.73;53.17;101623.97;5001894;28;20176;-83
2023/04/09 10:19:12;;;;;;;10.18;7.00;;;;;;;14.91;53.30;101652.69;5018333;28;20147;-83
2023/04/09 10:21:46;;;;;;;7.07;6.10;;;;;;;15.20;53.19;101700.00;5022709;28;20096;-83
2023/04/09 10:24:22;;;;;;;9.73;5.53;;;;;;;14.80;52.71;101639.44;5004974;28;20368;-84
2023/04/09 10:26:53;;;;;;;3.78;3.47;;;;;;;15.70;50.87;101740.84;5008182;28;20109;-83
2023/04/09 10:29:31;;;;;;;3.85;3.33;;;;;;;15.72;48.92;101733.53;5009682;28;20076;-84
2023/04/09 10:32:06;;;;;;;6.40;4.40;;;;;;;15.87;48.46;101741.97;5004543;28;20104;-81
2023/04/09 10:34:42;;;;;;;3.40;3.10;;;;;;;15.98;47.67;101747.16;5004225;28;20099;-82
2023/04/09 10:37:29;;;;;;;4.25;3.78;;;;;;;16.02;46.49;101719.13;5001748;28;20442;-83
2023/04/09 10:39:57;;;;;;;3.83;2.80;;;;;;;16.31;46.52;101747.66;4976934;28;20092;-84
2023/04/09 10:42:39;;;;;;;3.75;2.85;;;;;;;16.36;45.01;101721.25;4982542;28;20148;-84
2023/04/09 10:45:13;;;;;;;3.47;3.15;;;;;;;16.53;45.82;101737.53;4999679;28;20506;-84
2023/04/09 10:47:42;;;;;;;4.20;3.45;;;;;;;16.74;46.32;101732.78;5005137;28;20050;-84
2023/04/09 10:50:29;;;;;;;4.30;3.22;;;;;;;16.94;45.22;101756.84;5022496;28;20289;-81
2023/04/09 10:53:03;;;;;;;3.20;2.90;;;;;;;16.35;43.94;101652.56;4988187;28;20045;-83
2023/04/09 10:55:49;;;;;;;3.63;2.60;;;;;;;16.47;43.61;101673.81;4999678;28;20045;-84
2023/04/09 10:58:16;;;;;;;3.58;2.78;;;;;;;15.64;44.92;101540.66;5006881;28;20051;-82
2023/04/09 11:00:47;;;;;;;3.40;3.10;;;;;;;15.97;45.48;101591.97;5016942;28;20116;-84
2023/04/09 11:03:33;;;;;;;3.97;3.30;;;;;;;16.98;45.20;101740.31;4985056;28;20112;-82
2023/04/09 11:06:05;;;;;;;2.88;2.67;;;;;;;16.02;45.95;101579.84;4984517;28;20604;-83
2023/04/09 11:08:37;;;;;;;4.47;3.55;;;;;;;17.13;45.02;101740.63;4987637;28;20369;-83
2023/04/09 11:11:04;;;;;;;3.42;3.13;;;;;;;17.10;44.90;101735.56;4991007;28;20399;-84
2023/04/09 11:13:34;;;;;;;5.07;2.97;;;;;;;16.60;44.53;101653.72;4997227;28;20049;-83
2023/04/09 11:16:05;;;;;;;3.05;2.85;;;;;;;16.80;45.03;101692.00;5013526;28;20057;-84
2023/04/09 11:18:34;;;;;;;2.80;2.40;;;;;;;15.70;45.53;101521.34;5006801;28;20180;-83
2023/04/09 11:21:08;;;;;;;4.82;3.00;;;;;;;15.96;44.82;101542.94;5025599;28;20060;-83
2023/04/09 11:23:35;;;;;;;3.88;2.90;;;;;;;16.32;44.84;101575.16;5024018;28;20057;-82
2023/04/09 11:26:02;;;;;;;3.00;2.65;;;;;;;17.06;42.92;101667.09;5015772;28;20097;-84
2023/04/09 11:28:29;;;;;;;2.67;2.47;;;;;;;16.89;43.45;101612.47;5008817;28;20428;-83
2023/04/09 11:31:03;;;;;;;4.10;3.72;;;;;;;16.99;42.07;101593.59;5000922;28;20075;-83